createdAt,value
2023-01-11T00:00:41.513Z,6.87
2023-01-11T00:03:10.468Z,6.85
2023-01-11T00:05:39.275Z,6.86
2023-01-11T00:08:07.439Z,6.87
2023-01-11T00:10:35.521Z,6.99
2023-01-11T00:13:04.723Z,6.89
2023-01-11T00:15:32.493Z,6.89
2023-01-11T00:18:00.138Z,6.76
2023-01-11T00:20:29.088Z,6.88
2023-01-11T00:22:56.669Z,7.05
2023-01-11T00:25:24.307Z,6.91
2023-01-11T00:27:51.942Z,6.85
2023-01-11T00:30:20.014Z,6.84
2023-01-11T00:32:47.641Z,6.84
2023-01-11T00:35:15.412Z,6.86
2023-01-11T00:37:44.401Z,6.88
2023-01-11T00:40:12.752Z,6.85
2023-01-11T00:42:58.262Z,7.01
2023-01-11T00:45:44.652Z,6.92
2023-01-11T00:48:12.211Z,6.93
2023-01-11T00:50:41.781Z,6.94
2023-01-11T00:53:11.027Z,6.98
2023-01-11T00:55:38.826Z,7.02
2023-01-11T00:58:06.730Z,6.96
2023-01-11T01:00:34.296Z,6.95
2023-01-11T01:03:02.006Z,7.04
2023-01-11T01:05:29.594Z,7.10
2023-01-11T01:07:58.169Z,7.15
2023-01-11T01:10:27.077Z,6.99
2023-01-11T01:13:12.494Z,7.01
2023-01-11T01:15:42.825Z,7.18
2023-01-11T01:18:10.951Z,7.24
2023-01-11T01:20:38.518Z,7.24
2023-01-11T01:23:06.171Z,7.24
2023-01-11T01:25:37.620Z,7.22
2023-01-11T01:28:05.751Z,7.20
2023-01-11T01:30:33.853Z,7.24
2023-01-11T01:33:01.609Z,7.28
2023-01-11T01:35:29.208Z,7.14
2023-01-11T01:37:56.863Z,7.22
2023-01-11T01:40:24.481Z,7.11
2023-01-11T01:42:55.748Z,7.01
2023-01-11T01:45:24.907Z,7.06
2023-01-11T01:47:56.979Z,7.06
2023-01-11T01:50:28.514Z,7.11
2023-01-11T01:53:00.617Z,7.06
2023-01-11T01:55:31.204Z,7.18
2023-01-11T01:58:02.433Z,7.07
2023-01-11T02:00:30.835Z,7.22
2023-01-11T02:03:00.331Z,7.09
2023-01-11T02:05:28.234Z,7.14
2023-01-11T02:07:57.466Z,7.14
2023-01-11T02:10:27.902Z,7.17
2023-01-11T02:13:01.735Z,7.15
2023-01-11T02:15:30.404Z,7.16
2023-01-11T02:17:58.319Z,7.19
2023-01-11T02:20:43.733Z,7.35
2023-01-11T02:23:52.390Z,7.35
2023-01-11T02:26:53.581Z,7.29
2023-01-11T02:29:32.126Z,7.35
2023-01-11T02:32:09.860Z,7.31
2023-01-11T02:34:44.522Z,7.31
2023-01-11T02:37:28.780Z,7.32
2023-01-11T02:40:10.011Z,7.22
2023-01-11T02:42:57.930Z,7.30
2023-01-11T02:45:40.633Z,7.34
2023-01-11T02:48:18.881Z,7.36
2023-01-11T02:50:53.021Z,7.28
2023-01-11T02:53:28.890Z,7.17
2023-01-11T02:56:00.649Z,7.31
2023-01-11T02:58:30.700Z,7.22
2023-01-11T03:01:00.494Z,7.28
2023-01-11T03:03:29.478Z,7.16
2023-01-11T03:06:03.284Z,7.11
2023-01-11T03:09:09.061Z,7.28
2023-01-11T03:12:06.205Z,7.27
2023-01-11T03:14:46.848Z,7.22
2023-01-11T03:17:27.515Z,7.35
2023-01-11T03:20:02.206Z,7.35
2023-01-11T03:22:34.292Z,7.39
2023-01-11T03:25:12.784Z,7.43
2023-01-11T03:27:51.746Z,7.24
2023-01-11T03:30:27.790Z,7.44
2023-01-11T03:33:04.722Z,7.40
2023-01-11T03:35:38.794Z,7.30
2023-01-11T03:38:11.804Z,7.33
2023-01-11T03:40:43.868Z,7.39
2023-01-11T03:43:14.567Z,7.37
2023-01-11T03:45:49.843Z,7.39
2023-01-11T03:48:23.279Z,7.41
2023-01-11T03:50:59.538Z,7.50
2023-01-11T03:53:29.846Z,7.58
2023-01-11T03:56:00.153Z,7.56
2023-01-11T03:58:30.389Z,7.73
2023-01-11T04:00:58.594Z,7.79
2023-01-11T04:03:28.202Z,7.73
2023-01-11T04:06:00.269Z,7.67
2023-01-11T04:08:29.191Z,7.72
2023-01-11T04:10:56.739Z,7.74
2023-01-11T04:13:24.385Z,7.79
2023-01-11T04:15:53.655Z,7.69
2023-01-11T04:18:21.267Z,7.88
2023-01-11T04:20:50.235Z,7.76
2023-01-11T04:23:17.813Z,7.71
2023-01-11T04:25:45.767Z,7.62
2023-01-11T04:28:13.357Z,7.68
2023-01-11T04:30:40.903Z,7.72
2023-01-11T04:33:10.765Z,7.68
2023-01-11T04:35:38.512Z,7.66
2023-01-11T04:38:07.757Z,7.75
2023-01-11T04:40:35.316Z,7.72
2023-01-11T04:43:02.404Z,7.76
2023-01-11T04:45:30.391Z,7.85
2023-01-11T04:47:59.012Z,7.81
2023-01-11T04:50:28.099Z,7.85
2023-01-11T04:52:55.697Z,7.84
2023-01-11T04:55:24.587Z,7.80
2023-01-11T04:57:52.232Z,7.74
2023-01-11T05:00:20.329Z,7.82
2023-01-11T05:02:47.876Z,7.83
2023-01-11T05:05:15.436Z,7.84
2023-01-11T05:07:42.975Z,7.88
2023-01-11T05:10:11.526Z,7.94
2023-01-11T05:12:40.445Z,8.00
2023-01-11T05:15:09.575Z,7.93
2023-01-11T05:17:37.289Z,7.97
2023-01-11T05:20:06.771Z,8.04
2023-01-11T05:22:34.284Z,7.98
2023-01-11T05:25:01.801Z,8.05
2023-01-11T05:27:29.411Z,8.04
2023-01-11T05:29:58.369Z,8.07
2023-01-11T05:32:26.387Z,8.06
2023-01-11T05:34:53.905Z,8.23
2023-01-11T05:37:21.452Z,8.29
2023-01-11T05:39:49.052Z,8.22
2023-01-11T05:42:16.867Z,8.23
2023-01-11T05:45:02.311Z,8.33
2023-01-11T05:47:31.224Z,8.34
2023-01-11T05:49:59.855Z,8.25
2023-01-11T05:52:27.509Z,8.22
2023-01-11T05:54:55.146Z,8.23
2023-01-11T05:57:23.114Z,8.18
2023-01-11T05:59:50.731Z,8.29
2023-01-11T06:02:18.446Z,8.30
2023-01-11T06:04:47.486Z,8.33
2023-01-11T06:07:15.073Z,8.38
2023-01-11T06:09:42.702Z,8.37
2023-01-11T06:12:10.979Z,8.35
2023-01-11T06:14:38.858Z,8.34
2023-01-11T06:17:06.550Z,8.39
2023-01-11T06:19:34.426Z,8.40
2023-01-11T06:22:03.496Z,8.30
2023-01-11T06:24:31.266Z,8.19
2023-01-11T06:26:59.103Z,8.28
2023-01-11T06:29:26.662Z,8.24
2023-01-11T06:31:54.248Z,8.18
2023-01-11T06:34:21.769Z,8.21
2023-01-11T06:36:49.264Z,8.28
2023-01-11T06:39:18.160Z,8.14
2023-01-11T06:41:45.887Z,8.19
2023-01-11T06:44:13.414Z,8.12
2023-01-11T06:46:41.168Z,8.13
2023-01-11T06:49:08.965Z,8.08
2023-01-11T06:51:36.689Z,8.09
2023-01-11T06:54:04.474Z,8.16
2023-01-11T06:56:33.372Z,8.09
2023-01-11T06:59:01.001Z,8.07
2023-01-11T07:01:31.420Z,8.08
2023-01-11T07:03:58.935Z,8.25
2023-01-11T07:06:27.797Z,8.14
2023-01-11T07:08:55.706Z,8.13
2023-01-11T07:11:23.338Z,8.15
2023-01-11T07:13:52.389Z,8.19
2023-01-11T07:16:19.998Z,8.16
2023-01-11T07:18:47.657Z,8.22
2023-01-11T07:21:15.198Z,8.29
2023-01-11T07:23:43.041Z,8.28
2023-01-11T07:26:10.657Z,8.29
2023-01-11T07:28:38.438Z,8.30
2023-01-11T07:31:09.505Z,8.30
2023-01-11T07:33:37.119Z,8.26
2023-01-11T07:36:06.383Z,8.29
2023-01-11T07:38:34.146Z,8.32
2023-01-11T07:41:21.707Z,8.36
2023-01-11T07:43:48.281Z,8.38
2023-01-11T07:46:17.462Z,8.42
2023-01-11T07:48:45.087Z,8.37
2023-01-11T07:51:13.400Z,8.43
2023-01-11T07:53:40.943Z,8.50
2023-01-11T07:56:08.668Z,8.56
2023-01-11T07:58:36.394Z,8.62
2023-01-11T08:01:04.038Z,8.61
2023-01-11T08:03:33.238Z,8.58
2023-01-11T08:06:00.931Z,8.72
2023-01-11T08:08:28.462Z,8.61
2023-01-11T08:11:10.043Z,8.63
2023-01-11T08:13:55.487Z,8.62
2023-01-11T08:16:23.283Z,8.72
2023-01-11T08:18:52.306Z,8.78
2023-01-11T08:21:21.232Z,8.76
2023-01-11T08:23:48.835Z,8.70
2023-01-11T08:26:17.920Z,8.77
2023-01-11T08:28:45.790Z,8.76
2023-01-11T08:31:13.582Z,8.69
2023-01-11T08:33:41.260Z,8.87
2023-01-11T08:36:12.753Z,8.85
2023-01-11T08:38:41.490Z,8.95
2023-01-11T08:41:10.814Z,8.86
2023-01-11T08:43:38.511Z,8.91
2023-01-11T08:46:06.631Z,8.84
2023-01-11T08:48:34.471Z,8.86
2023-01-11T08:51:02.115Z,8.84
2023-01-11T08:53:31.089Z,8.85
2023-01-11T08:55:58.878Z,8.94
2023-01-11T08:58:26.420Z,8.98
2023-01-11T09:00:54.275Z,8.95
2023-01-11T09:03:22.022Z,9.05
2023-01-11T09:05:49.724Z,8.95
2023-01-11T09:08:17.322Z,9.09
2023-01-11T09:10:46.261Z,9.07
2023-01-11T09:13:14.028Z,9.06
2023-01-11T09:15:42.624Z,9.04
2023-01-11T09:18:10.334Z,9.17
2023-01-11T09:20:37.963Z,9.20
2023-01-11T09:23:05.724Z,9.21
2023-01-11T09:25:33.612Z,9.15
2023-01-11T09:28:02.560Z,9.15
2023-01-11T09:30:30.221Z,9.24
2023-01-11T09:32:58.184Z,9.25
2023-01-11T09:35:26.968Z,9.30
2023-01-11T09:37:56.582Z,9.27
2023-01-11T09:40:31.095Z,9.33
2023-01-11T09:43:01.381Z,9.34
2023-01-11T09:45:31.521Z,9.38
2023-01-11T09:48:06.754Z,9.38
2023-01-11T09:50:41.305Z,9.33
2023-01-11T09:53:22.413Z,9.34
2023-01-11T09:55:52.839Z,9.29
2023-01-11T09:58:38.124Z,9.33
2023-01-11T10:01:17.138Z,9.45
2023-01-11T10:04:13.864Z,9.48
2023-01-11T10:06:52.031Z,9.47
2023-01-11T10:18:27.731Z,9.44
2023-01-11T10:19:17.003Z,9.50
2023-01-11T10:21:23.408Z,9.53
2023-01-11T10:23:57.250Z,9.53
2023-01-11T10:26:28.998Z,9.52
2023-01-11T10:29:18.595Z,9.55
2023-01-11T10:32:09.472Z,9.63
2023-01-11T10:34:59.626Z,9.63
2023-01-11T10:37:54.299Z,9.61
2023-01-11T10:40:35.109Z,9.80
2023-01-11T10:43:09.340Z,9.82
2023-01-11T10:45:44.456Z,9.78
2023-01-11T10:48:22.956Z,9.68
2023-01-11T10:51:01.553Z,9.78
2023-01-11T10:53:35.864Z,9.78
2023-01-11T10:56:13.693Z,9.97
2023-01-11T10:59:07.618Z,9.91
2023-01-11T11:01:50.767Z,9.86
2023-01-11T11:04:48.792Z,9.87
2023-01-11T11:07:23.596Z,9.80
2023-01-11T11:10:00.535Z,9.85
2023-01-11T11:12:31.145Z,9.91
2023-01-11T11:15:04.632Z,9.94
2023-01-11T11:17:34.240Z,9.95
2023-01-11T11:20:01.951Z,9.96
2023-01-11T11:22:30.832Z,10.06
2023-01-11T11:25:02.447Z,10.15
2023-01-11T11:27:35.244Z,10.24
2023-01-11T11:30:03.324Z,10.49
2023-01-11T11:32:35.642Z,10.49
2023-01-11T11:35:04.635Z,10.54
2023-01-11T11:37:36.131Z,10.89
2023-01-11T11:40:05.653Z,11.05
2023-01-11T11:42:33.310Z,11.20
2023-01-11T11:45:18.188Z,11.22
2023-01-11T11:48:01.914Z,11.08
2023-01-11T11:50:43.584Z,11.32
2023-01-11T11:53:24.541Z,11.45
2023-01-11T11:55:53.652Z,11.50
2023-01-11T11:58:24.596Z,11.46
2023-01-11T12:00:53.505Z,11.57
2023-01-11T12:03:27.437Z,11.67
2023-01-11T12:05:58.593Z,11.91
2023-01-11T12:08:29.175Z,11.90
2023-01-11T12:10:59.407Z,12.06
2023-01-11T12:13:30.443Z,12.18
2023-01-11T12:15:59.408Z,12.01
2023-01-11T12:18:30.449Z,11.83
2023-01-11T12:20:58.041Z,11.62
2023-01-11T12:23:27.407Z,11.61
2023-01-11T12:26:13.051Z,11.54
2023-01-11T12:29:05.720Z,11.19
2023-01-11T12:31:43.909Z,10.93
2023-01-11T12:34:28.660Z,10.90
2023-01-11T12:37:04.523Z,10.92
2023-01-11T12:39:44.039Z,10.88
2023-01-11T12:42:43.150Z,10.99
2023-01-11T12:45:20.558Z,10.97
2023-01-11T12:48:17.785Z,10.86
2023-01-11T12:50:59.382Z,10.82
2023-01-11T12:53:39.996Z,10.86
2023-01-11T12:56:27.793Z,10.90
2023-01-11T12:59:02.009Z,10.96
2023-01-11T13:01:46.846Z,10.85
2023-01-11T13:04:42.422Z,10.91
2023-01-11T13:07:19.553Z,11.00
2023-01-11T13:10:01.038Z,11.16
2023-01-11T13:12:34.949Z,11.12
2023-01-11T13:15:16.576Z,11.03
2023-01-11T13:17:52.795Z,11.05
2023-01-11T13:20:30.925Z,11.07
2023-01-11T13:23:03.582Z,11.02
2023-01-11T13:25:33.974Z,11.06
2023-01-11T13:28:11.131Z,11.02
2023-01-11T13:30:43.229Z,11.11
2023-01-11T13:33:17.436Z,11.21
2023-01-11T13:35:51.739Z,11.16
2023-01-11T13:38:34.758Z,11.26
2023-01-11T13:41:15.344Z,11.18
2023-01-11T13:43:51.213Z,11.15
2023-01-11T13:46:25.146Z,11.10
2023-01-11T13:48:56.975Z,11.06
2023-01-11T13:51:32.236Z,11.07
2023-01-11T13:54:08.499Z,11.13
2023-01-11T13:56:42.276Z,11.17
2023-01-11T13:59:17.302Z,11.23
2023-01-11T14:01:50.785Z,11.22
2023-01-11T14:04:24.582Z,11.28
2023-01-11T14:07:06.129Z,11.30
2023-01-11T14:10:04.939Z,11.38
2023-01-11T14:12:46.104Z,11.29
2023-01-11T14:15:31.712Z,11.23
2023-01-11T14:18:19.312Z,11.17
2023-01-11T14:21:00.615Z,11.12
2023-01-11T14:23:36.920Z,11.14
2023-01-11T14:26:24.207Z,10.99
2023-01-11T14:29:06.710Z,10.87
2023-01-11T14:31:55.134Z,10.77
2023-01-11T14:34:50.182Z,10.63
2023-01-11T14:37:53.582Z,10.65
2023-01-11T14:40:43.962Z,10.46
2023-01-11T14:43:25.582Z,10.47
2023-01-11T14:46:09.273Z,10.39
2023-01-11T14:48:50.761Z,10.32
2023-01-11T14:51:33.734Z,10.31
2023-01-11T14:54:07.903Z,10.33
2023-01-11T14:56:51.006Z,10.32
2023-01-11T14:59:37.033Z,10.45
2023-01-11T15:02:15.816Z,10.38
2023-01-11T15:05:05.505Z,10.33
2023-01-11T15:07:39.223Z,10.35
2023-01-11T15:10:46.531Z,10.23
2023-01-11T15:13:19.446Z,10.15
2023-01-11T15:16:04.889Z,10.18
2023-01-11T15:18:33.224Z,10.16
2023-01-11T15:21:05.872Z,10.07
2023-01-11T15:23:37.381Z,10.03
2023-01-11T15:26:09.375Z,9.99
2023-01-11T15:28:45.447Z,9.93
2023-01-11T15:31:49.702Z,9.85
2023-01-11T15:34:24.909Z,9.88
2023-01-11T15:37:13.464Z,9.83
2023-01-11T15:39:46.497Z,9.85
2023-01-11T15:42:55.208Z,9.80
2023-01-11T15:46:02.919Z,9.69
2023-01-11T15:48:44.447Z,9.66
2023-01-11T15:51:31.353Z,9.65
2023-01-11T15:54:26.934Z,9.54
2023-01-11T15:57:15.221Z,9.50
2023-01-11T16:00:21.420Z,9.54
2023-01-11T16:03:25.292Z,9.48
2023-01-11T16:05:59.645Z,9.47
2023-01-11T16:08:33.602Z,9.40
2023-01-11T16:11:13.071Z,9.38
2023-01-11T16:13:51.322Z,9.35
2023-01-11T16:16:23.598Z,9.26
2023-01-11T16:18:55.510Z,9.23
2023-01-11T16:21:32.652Z,9.21
2023-01-11T16:24:00.746Z,9.07
2023-01-11T16:26:28.551Z,9.14
2023-01-11T16:28:59.718Z,9.02
2023-01-11T16:31:56.515Z,9.17
2023-01-11T16:34:24.671Z,9.16
2023-01-11T16:36:52.366Z,9.13
2023-01-11T16:39:23.442Z,8.98
2023-01-11T16:41:58.345Z,8.86
2023-01-11T16:44:34.817Z,8.83
2023-01-11T16:47:11.347Z,8.75
2023-01-11T16:49:40.871Z,8.65
2023-01-11T16:52:39.131Z,8.57
2023-01-11T16:55:20.796Z,8.53
2023-01-11T16:57:52.974Z,8.57
2023-01-11T17:00:37.775Z,8.49
2023-01-11T17:03:22.213Z,8.51
2023-01-11T17:06:16.112Z,8.45
2023-01-11T17:08:45.448Z,8.39
2023-01-11T17:11:24.244Z,8.39
2023-01-11T17:14:21.896Z,8.37
2023-01-11T17:16:52.666Z,8.37
2023-01-11T17:19:24.294Z,8.43
2023-01-11T17:21:53.723Z,8.32
2023-01-11T17:24:25.676Z,8.32
2023-01-11T17:26:55.968Z,8.31
2023-01-11T17:29:29.329Z,8.21
2023-01-11T17:32:00.308Z,8.25
2023-01-11T17:34:32.544Z,8.16
2023-01-11T17:37:01.402Z,8.11
2023-01-11T17:39:32.103Z,8.18
2023-01-11T17:42:20.224Z,8.13
2023-01-11T17:45:07.021Z,8.15
2023-01-11T17:47:35.600Z,8.17
2023-01-11T17:50:05.747Z,8.19
2023-01-11T17:52:43.826Z,8.12
2023-01-11T17:55:17.606Z,7.99
2023-01-11T17:57:46.282Z,7.93
2023-01-11T18:00:24.421Z,7.85
2023-01-11T18:02:53.286Z,7.81
2023-01-11T18:05:25.800Z,7.81
2023-01-11T18:07:56.043Z,7.74
2023-01-11T18:10:26.142Z,7.72
2023-01-11T18:12:56.413Z,7.88
2023-01-11T18:15:29.925Z,7.90
2023-01-11T18:17:57.903Z,7.81
2023-01-11T18:20:38.281Z,7.84
2023-01-11T18:23:19.807Z,7.86
2023-01-11T18:25:48.047Z,7.91
2023-01-11T18:28:30.525Z,7.87
2023-01-11T18:31:01.893Z,7.89
2023-01-11T18:33:32.423Z,7.80
2023-01-11T18:36:03.354Z,7.69
2023-01-11T18:38:32.649Z,7.59
2023-01-11T18:41:24.284Z,7.73
2023-01-11T18:43:52.826Z,7.82
2023-01-11T18:46:21.902Z,7.71
2023-01-11T18:48:49.846Z,7.65
2023-01-11T18:51:22.377Z,7.57
2023-01-11T18:53:50.064Z,7.51
2023-01-11T18:56:17.769Z,7.60
2023-01-11T18:58:45.279Z,7.56
2023-01-11T19:01:13.329Z,7.58
2023-01-11T19:03:43.763Z,7.50
2023-01-11T19:06:14.212Z,7.48
2023-01-11T19:08:43.173Z,7.42
2023-01-11T19:11:10.771Z,7.43
2023-01-11T19:13:38.382Z,7.48
2023-01-11T19:16:07.185Z,7.32
2023-01-11T19:18:35.374Z,7.28
2023-01-11T19:21:07.082Z,7.30
2023-01-11T19:23:35.177Z,7.30
2023-01-11T19:26:08.661Z,7.25
2023-01-11T19:28:37.310Z,7.13
2023-01-11T19:31:07.933Z,7.15
2023-01-11T19:33:35.847Z,7.09
2023-01-11T19:36:06.149Z,7.14
2023-01-11T19:38:34.190Z,7.10
2023-01-11T19:41:07.748Z,7.16
2023-01-11T19:43:40.773Z,7.22
2023-01-11T19:46:11.450Z,7.09
2023-01-11T19:48:39.136Z,7.01
2023-01-11T19:51:09.508Z,7.06
2023-01-11T19:53:41.527Z,7.06
2023-01-11T19:56:11.421Z,7.03
2023-01-11T19:58:44.472Z,7.06
2023-01-11T20:01:15.683Z,7.00
2023-01-11T20:03:43.652Z,6.99
2023-01-11T20:06:12.049Z,6.96
2023-01-11T20:08:43.018Z,6.97
2023-01-11T20:11:14.643Z,6.81
2023-01-11T20:13:43.173Z,6.94
2023-01-11T20:16:12.849Z,6.89
2023-01-11T20:18:42.344Z,6.92
2023-01-11T20:21:11.538Z,6.81
2023-01-11T20:23:39.604Z,6.76
2023-01-11T20:26:14.734Z,6.84
2023-01-11T20:28:47.546Z,6.73
2023-01-11T20:31:16.159Z,6.75
2023-01-11T20:33:43.828Z,6.74
2023-01-11T20:36:13.646Z,6.73
2023-01-11T20:38:41.336Z,6.72
2023-01-11T20:41:10.963Z,6.72
2023-01-11T20:43:40.521Z,6.72
2023-01-11T20:46:16.669Z,6.86
2023-01-11T20:48:46.309Z,6.92
2023-01-11T20:51:14.226Z,6.82
2023-01-11T20:53:42.780Z,6.78
2023-01-11T20:56:10.581Z,6.78
2023-01-11T20:58:38.464Z,6.79
2023-01-11T21:01:06.659Z,6.77
2023-01-11T21:03:35.975Z,6.78
2023-01-11T21:06:03.767Z,6.77
2023-01-11T21:08:31.821Z,6.89
2023-01-11T21:11:05.081Z,6.83
2023-01-11T21:13:33.119Z,6.79
2023-01-11T21:16:08.503Z,6.75
2023-01-11T21:18:43.343Z,6.81
2023-01-11T21:21:13.370Z,6.73
2023-01-11T21:23:41.310Z,6.67
2023-01-11T21:26:13.093Z,6.65
2023-01-11T21:28:42.976Z,6.64
2023-01-11T21:31:13.112Z,6.71
2023-01-11T21:33:42.305Z,6.78
2023-01-11T21:36:14.210Z,6.71
2023-01-11T21:38:41.775Z,6.72
2023-01-11T21:41:11.639Z,6.64
2023-01-11T21:43:39.506Z,6.61
2023-01-11T21:46:08.979Z,6.54
2023-01-11T21:48:39.780Z,6.60
2023-01-11T21:51:11.105Z,6.58
2023-01-11T21:53:38.882Z,6.60
2023-01-11T21:56:12.562Z,6.62
2023-01-11T21:58:50.012Z,6.62
2023-01-11T22:01:22.202Z,6.68
2023-01-11T22:03:51.008Z,6.63
2023-01-11T22:06:21.346Z,6.72
2023-01-11T22:08:49.261Z,6.75
2023-01-11T22:11:37.496Z,6.80
2023-01-11T22:14:06.660Z,6.79
2023-01-11T22:16:35.272Z,6.81
2023-01-11T22:19:06.114Z,6.75
2023-01-11T22:21:38.271Z,6.77
2023-01-11T22:24:10.193Z,6.75
2023-01-11T22:26:38.842Z,6.69
2023-01-11T22:29:14.829Z,6.72
2023-01-11T22:31:45.664Z,6.71
2023-01-11T22:34:15.100Z,6.78
2023-01-11T22:36:45.822Z,6.83
2023-01-11T22:39:16.072Z,6.79
2023-01-11T22:41:46.158Z,6.77
2023-01-11T22:44:14.432Z,6.76
2023-01-11T22:46:44.295Z,6.80
2023-01-11T22:49:20.370Z,6.85
2023-01-11T22:51:53.287Z,7.01
2023-01-11T22:54:22.898Z,6.95
2023-01-11T22:56:51.011Z,6.84
2023-01-11T22:59:18.899Z,6.81
2023-01-11T23:01:46.593Z,6.76
2023-01-11T23:04:15.071Z,6.79
2023-01-11T23:06:43.914Z,6.87
2023-01-11T23:09:18.682Z,6.82
2023-01-11T23:12:04.423Z,6.92
2023-01-11T23:14:33.200Z,6.91
2023-01-11T23:17:02.823Z,6.99
2023-01-11T23:19:33.348Z,6.93
2023-01-11T23:22:01.140Z,7.10
2023-01-11T23:24:30.739Z,7.10
2023-01-11T23:27:00.526Z,7.21
2023-01-11T23:29:30.088Z,7.22
2023-01-11T23:31:59.023Z,7.38
2023-01-11T23:34:26.775Z,7.41
2023-01-11T23:36:55.656Z,7.43
2023-01-11T23:39:23.848Z,7.51
2023-01-11T23:42:11.286Z,7.50
2023-01-11T23:44:39.101Z,7.56
2023-01-11T23:47:21.174Z,7.65
2023-01-11T23:49:49.468Z,7.64
2023-01-11T23:52:17.328Z,7.74
2023-01-11T23:54:46.025Z,7.76
2023-01-11T23:57:15.661Z,7.72
2023-01-11T23:59:43.617Z,7.76
